sensor_id;sensor_type;location;lat;lon;timestamp;P1;durP1;ratioP1;P2;durP2;ratioP2
10045;SDS011;5063;50.878;4.742;2023-11-21T00:00:18;35.20;;;22.57;;
10045;SDS011;5063;50.878;4.742;2023-11-21T00:02:44;32.47;;;19.77;;
10045;SDS011;5063;50.878;4.742;2023-11-21T00:05:11;34.13;;;20.50;;
10045;SDS011;5063;50.878;4.742;2023-11-21T00:07:39;42.23;;;23.20;;
10045;SDS011;5063;50.878;4.742;2023-11-21T00:10:05;33.53;;;20.80;;
10045;SDS011;5063;50.878;4.742;2023-11-21T00:12:33;35.50;;;22.00;;
10045;SDS011;5063;50.878;4.742;2023-11-21T00:14:59;35.40;;;23.07;;
10045;SDS011;5063;50.878;4.742;2023-11-21T00:17:26;35.93;;;22.40;;
10045;SDS011;5063;50.878;4.742;2023-11-21T00:19:52;37.23;;;22.40;;
10045;SDS011;5063;50.878;4.742;2023-11-21T00:22:18;35.40;;;22.57;;
10045;SDS011;5063;50.878;4.742;2023-11-21T00:24:45;38.00;;;24.13;;
10045;SDS011;5063;50.878;4.742;2023-11-21T00:27:11;34.53;;;22.23;;
10045;SDS011;5063;50.878;4.742;2023-11-21T00:29:37;35.50;;;22.80;;
10045;SDS011;5063;50.878;4.742;2023-11-21T00:32:04;37.10;;;25.10;;
10045;SDS011;5063;50.878;4.742;2023-11-21T00:34:30;38.67;;;22.10;;
10045;SDS011;5063;50.878;4.742;2023-11-21T00:36:56;41.27;;;23.73;;
10045;SDS011;5063;50.878;4.742;2023-11-21T00:39:22;34.17;;;21.07;;
10045;SDS011;5063;50.878;4.742;2023-11-21T00:41:48;34.90;;;21.97;;
10045;SDS011;5063;50.878;4.742;2023-11-21T00:44:14;34.30;;;21.80;;
10045;SDS011;5063;50.878;4.742;2023-11-21T00:46:41;40.47;;;23.17;;
10045;SDS011;5063;50.878;4.742;2023-11-21T00:49:07;36.33;;;23.13;;
10045;SDS011;5063;50.878;4.742;2023-11-21T00:51:33;33.03;;;21.53;;
10045;SDS011;5063;50.878;4.742;2023-11-21T00:53:58;36.47;;;21.00;;
10045;SDS011;5063;50.878;4.742;2023-11-21T00:56:24;34.47;;;21.33;;
10045;SDS011;5063;50.878;4.742;2023-11-21T00:58:50;35.97;;;20.70;;
10045;SDS011;5063;50.878;4.742;2023-11-21T01:01:17;33.87;;;20.70;;
10045;SDS011;5063;50.878;4.742;2023-11-21T01:03:45;31.90;;;19.93;;
10045;SDS011;5063;50.878;4.742;2023-11-21T01:06:11;30.07;;;18.50;;
10045;SDS011;5063;50.878;4.742;2023-11-21T01:08:37;32.60;;;19.83;;
10045;SDS011;5063;50.878;4.742;2023-11-21T01:11:03;32.27;;;17.73;;
10045;SDS011;5063;50.878;4.742;2023-11-21T01:13:30;27.03;;;17.60;;
10045;SDS011;5063;50.878;4.742;2023-11-21T01:15:55;25.87;;;16.70;;
10045;SDS011;5063;50.878;4.742;2023-11-21T01:18:21;30.90;;;18.87;;
10045;SDS011;5063;50.878;4.742;2023-11-21T01:20:47;35.97;;;21.13;;
10045;SDS011;5063;50.878;4.742;2023-11-21T01:23:13;27.70;;;16.97;;
10045;SDS011;5063;50.878;4.742;2023-11-21T01:25:39;28.73;;;17.63;;
10045;SDS011;5063;50.878;4.742;2023-11-21T01:28:05;27.27;;;16.67;;
10045;SDS011;5063;50.878;4.742;2023-11-21T01:30:31;26.63;;;16.27;;
10045;SDS011;5063;50.878;4.742;2023-11-21T01:32:57;28.37;;;18.17;;
10045;SDS011;5063;50.878;4.742;2023-11-21T01:35:23;29.43;;;18.07;;
10045;SDS011;5063;50.878;4.742;2023-11-21T01:37:49;27.83;;;18.57;;
10045;SDS011;5063;50.878;4.742;2023-11-21T01:40:15;33.70;;;19.00;;
10045;SDS011;5063;50.878;4.742;2023-11-21T01:42:41;34.30;;;18.53;;
10045;SDS011;5063;50.878;4.742;2023-11-21T01:45:09;30.67;;;17.63;;
10045;SDS011;5063;50.878;4.742;2023-11-21T01:47:35;36.00;;;18.73;;
10045;SDS011;5063;50.878;4.742;2023-11-21T01:50:03;28.13;;;19.27;;
10045;SDS011;5063;50.878;4.742;2023-11-21T01:52:30;33.63;;;19.70;;
10045;SDS011;5063;50.878;4.742;2023-11-21T01:54:56;35.10;;;20.03;;
10045;SDS011;5063;50.878;4.742;2023-11-21T01:57:23;35.97;;;20.23;;
10045;SDS011;5063;50.878;4.742;2023-11-21T01:59:49;37.37;;;20.27;;
10045;SDS011;5063;50.878;4.742;2023-11-21T02:02:19;31.30;;;19.10;;
10045;SDS011;5063;50.878;4.742;2023-11-21T02:04:45;31.83;;;18.53;;
10045;SDS011;5063;50.878;4.742;2023-11-21T02:07:11;28.83;;;18.67;;
10045;SDS011;5063;50.878;4.742;2023-11-21T02:09:36;30.33;;;18.03;;
10045;SDS011;5063;50.878;4.742;2023-11-21T02:12:07;31.27;;;18.93;;
10045;SDS011;5063;50.878;4.742;2023-11-21T02:14:35;37.27;;;19.63;;
10045;SDS011;5063;50.878;4.742;2023-11-21T02:17:01;38.57;;;19.33;;
10045;SDS011;5063;50.878;4.742;2023-11-21T02:19:28;37.17;;;20.57;;
10045;SDS011;5063;50.878;4.742;2023-11-21T02:21:58;35.23;;;20.73;;
10045;SDS011;5063;50.878;4.742;2023-11-21T02:24:28;31.90;;;18.93;;
10045;SDS011;5063;50.878;4.742;2023-11-21T02:26:53;36.50;;;19.00;;
10045;SDS011;5063;50.878;4.742;2023-11-21T02:29:20;40.17;;;20.53;;
10045;SDS011;5063;50.878;4.742;2023-11-21T02:31:53;34.43;;;18.87;;
10045;SDS011;5063;50.878;4.742;2023-11-21T02:34:19;36.40;;;19.37;;
10045;SDS011;5063;50.878;4.742;2023-11-21T02:36:46;38.30;;;20.13;;
10045;SDS011;5063;50.878;4.742;2023-11-21T02:39:14;35.70;;;19.57;;
10045;SDS011;5063;50.878;4.742;2023-11-21T02:41:41;35.13;;;18.27;;
10045;SDS011;5063;50.878;4.742;2023-11-21T02:44:08;32.77;;;18.40;;
10045;SDS011;5063;50.878;4.742;2023-11-21T02:46:35;36.27;;;18.40;;
10045;SDS011;5063;50.878;4.742;2023-11-21T02:49:04;31.97;;;18.90;;
10045;SDS011;5063;50.878;4.742;2023-11-21T02:51:35;34.63;;;17.10;;
10045;SDS011;5063;50.878;4.742;2023-11-21T02:54:03;37.43;;;19.33;;
10045;SDS011;5063;50.878;4.742;2023-11-21T02:56:31;36.13;;;19.67;;
10045;SDS011;5063;50.878;4.742;2023-11-21T02:58:59;39.30;;;18.37;;
10045;SDS011;5063;50.878;4.742;2023-11-21T03:01:25;37.70;;;19.70;;
10045;SDS011;5063;50.878;4.742;2023-11-21T03:03:51;40.50;;;19.73;;
10045;SDS011;5063;50.878;4.742;2023-11-21T03:06:20;36.90;;;18.77;;
10045;SDS011;5063;50.878;4.742;2023-11-21T03:08:46;32.20;;;18.20;;
10045;SDS011;5063;50.878;4.742;2023-11-21T03:11:12;37.00;;;19.13;;
10045;SDS011;5063;50.878;4.742;2023-11-21T03:13:41;40.33;;;19.47;;
10045;SDS011;5063;50.878;4.742;2023-11-21T03:16:10;35.03;;;18.97;;
10045;SDS011;5063;50.878;4.742;2023-11-21T03:18:40;36.63;;;19.43;;
10045;SDS011;5063;50.878;4.742;2023-11-21T03:21:06;30.27;;;17.40;;
10045;SDS011;5063;50.878;4.742;2023-11-21T03:23:35;38.43;;;19.47;;
10045;SDS011;5063;50.878;4.742;2023-11-21T03:26:02;34.70;;;17.73;;
10045;SDS011;5063;50.878;4.742;2023-11-21T03:28:28;33.90;;;18.33;;
10045;SDS011;5063;50.878;4.742;2023-11-21T03:30:55;36.17;;;19.00;;
10045;SDS011;5063;50.878;4.742;2023-11-21T03:33:21;37.63;;;19.17;;
10045;SDS011;5063;50.878;4.742;2023-11-21T03:35:47;28.43;;;16.87;;
10045;SDS011;5063;50.878;4.742;2023-11-21T03:38:14;36.37;;;18.63;;
10045;SDS011;5063;50.878;4.742;2023-11-21T03:40:41;32.80;;;17.70;;
10045;SDS011;5063;50.878;4.742;2023-11-21T03:43:07;35.00;;;19.50;;
10045;SDS011;5063;50.878;4.742;2023-11-21T03:45:32;34.87;;;18.43;;
10045;SDS011;5063;50.878;4.742;2023-11-21T03:47:58;33.40;;;19.07;;
10045;SDS011;5063;50.878;4.742;2023-11-21T03:50:26;41.23;;;19.50;;
10045;SDS011;5063;50.878;4.742;2023-11-21T03:52:54;31.47;;;17.50;;
10045;SDS011;5063;50.878;4.742;2023-11-21T03:55:20;29.37;;;17.37;;
10045;SDS011;5063;50.878;4.742;2023-11-21T03:57:46;30.97;;;17.60;;
10045;SDS011;5063;50.878;4.742;2023-11-21T04:00:12;32.37;;;18.03;;
10045;SDS011;5063;50.878;4.742;2023-11-21T04:02:38;29.87;;;17.27;;
10045;SDS011;5063;50.878;4.742;2023-11-21T04:05:04;32.77;;;17.47;;
10045;SDS011;5063;50.878;4.742;2023-11-21T04:07:32;32.30;;;18.33;;
10045;SDS011;5063;50.878;4.742;2023-11-21T04:09:57;37.90;;;20.47;;
10045;SDS011;5063;50.878;4.742;2023-11-21T04:12:24;31.57;;;17.23;;
10045;SDS011;5063;50.878;4.742;2023-11-21T04:14:49;34.27;;;18.40;;
10045;SDS011;5063;50.878;4.742;2023-11-21T04:17:17;33.57;;;18.70;;
10045;SDS011;5063;50.878;4.742;2023-11-21T04:19:44;31.73;;;16.93;;
10045;SDS011;5063;50.878;4.742;2023-11-21T04:22:10;31.13;;;18.63;;
10045;SDS011;5063;50.878;4.742;2023-11-21T04:24:35;34.30;;;16.83;;
10045;SDS011;5063;50.878;4.742;2023-11-21T04:27:01;34.10;;;18.43;;
10045;SDS011;5063;50.878;4.742;2023-11-21T04:29:28;29.07;;;17.17;;
10045;SDS011;5063;50.878;4.742;2023-11-21T04:31:54;26.07;;;16.33;;
10045;SDS011;5063;50.878;4.742;2023-11-21T04:34:19;31.00;;;16.50;;
10045;SDS011;5063;50.878;4.742;2023-11-21T04:36:45;27.80;;;16.33;;
10045;SDS011;5063;50.878;4.742;2023-11-21T04:39:11;28.90;;;17.00;;
10045;SDS011;5063;50.878;4.742;2023-11-21T04:41:37;30.47;;;18.00;;
10045;SDS011;5063;50.878;4.742;2023-11-21T04:44:05;32.80;;;17.73;;
10045;SDS011;5063;50.878;4.742;2023-11-21T04:46:31;27.33;;;16.57;;
10045;SDS011;5063;50.878;4.742;2023-11-21T04:48:57;26.40;;;16.73;;
10045;SDS011;5063;50.878;4.742;2023-11-21T04:51:23;27.40;;;15.80;;
10045;SDS011;5063;50.878;4.742;2023-11-21T04:53:49;25.13;;;15.60;;
10045;SDS011;5063;50.878;4.742;2023-11-21T04:56:15;27.73;;;16.90;;
10045;SDS011;5063;50.878;4.742;2023-11-21T04:58:41;25.80;;;16.13;;
10045;SDS011;5063;50.878;4.742;2023-11-21T05:01:07;23.03;;;13.80;;
10045;SDS011;5063;50.878;4.742;2023-11-21T05:03:33;24.03;;;15.70;;
10045;SDS011;5063;50.878;4.742;2023-11-21T05:05:59;32.20;;;16.67;;
10045;SDS011;5063;50.878;4.742;2023-11-21T05:08:25;26.13;;;15.60;;
10045;SDS011;5063;50.878;4.742;2023-11-21T05:10:51;24.27;;;13.83;;
10045;SDS011;5063;50.878;4.742;2023-11-21T05:13:18;25.17;;;15.40;;
10045;SDS011;5063;50.878;4.742;2023-11-21T05:15:45;25.47;;;16.87;;
10045;SDS011;5063;50.878;4.742;2023-11-21T05:18:10;21.83;;;14.10;;
10045;SDS011;5063;50.878;4.742;2023-11-21T05:20:38;25.73;;;15.67;;
10045;SDS011;5063;50.878;4.742;2023-11-21T05:23:06;28.57;;;16.07;;
10045;SDS011;5063;50.878;4.742;2023-11-21T05:25:33;30.93;;;15.50;;
10045;SDS011;5063;50.878;4.742;2023-11-21T05:27:59;22.63;;;13.67;;
10045;SDS011;5063;50.878;4.742;2023-11-21T05:30:26;30.97;;;15.03;;
10045;SDS011;5063;50.878;4.742;2023-11-21T05:32:52;27.40;;;15.20;;
10045;SDS011;5063;50.878;4.742;2023-11-21T05:35:18;24.33;;;15.43;;
10045;SDS011;5063;50.878;4.742;2023-11-21T05:37:44;22.07;;;13.83;;
10045;SDS011;5063;50.878;4.742;2023-11-21T05:40:11;22.43;;;14.27;;
10045;SDS011;5063;50.878;4.742;2023-11-21T05:42:38;24.03;;;15.33;;
10045;SDS011;5063;50.878;4.742;2023-11-21T05:45:05;23.27;;;13.50;;
10045;SDS011;5063;50.878;4.742;2023-11-21T05:47:39;25.27;;;15.00;;
10045;SDS011;5063;50.878;4.742;2023-11-21T05:50:06;22.33;;;14.63;;
10045;SDS011;5063;50.878;4.742;2023-11-21T05:52:35;24.67;;;13.80;;
10045;SDS011;5063;50.878;4.742;2023-11-21T05:55:02;22.53;;;13.73;;
10045;SDS011;5063;50.878;4.742;2023-11-21T05:57:30;21.07;;;13.73;;
10045;SDS011;5063;50.878;4.742;2023-11-21T05:59:55;21.77;;;13.20;;
10045;SDS011;5063;50.878;4.742;2023-11-21T06:02:21;22.43;;;13.13;;
10045;SDS011;5063;50.878;4.742;2023-11-21T06:04:47;23.27;;;13.50;;
10045;SDS011;5063;50.878;4.742;2023-11-21T06:07:12;24.83;;;15.07;;
10045;SDS011;5063;50.878;4.742;2023-11-21T06:09:38;28.30;;;14.93;;
10045;SDS011;5063;50.878;4.742;2023-11-21T06:12:04;29.83;;;14.83;;
10045;SDS011;5063;50.878;4.742;2023-11-21T06:14:30;23.43;;;14.20;;
10045;SDS011;5063;50.878;4.742;2023-11-21T06:16:58;21.33;;;14.13;;
10045;SDS011;5063;50.878;4.742;2023-11-21T06:19:24;22.97;;;13.70;;
10045;SDS011;5063;50.878;4.742;2023-11-21T06:21:49;25.67;;;15.13;;
10045;SDS011;5063;50.878;4.742;2023-11-21T06:24:15;25.70;;;13.37;;
10045;SDS011;5063;50.878;4.742;2023-11-21T06:26:42;26.63;;;15.63;;
10045;SDS011;5063;50.878;4.742;2023-11-21T06:29:09;21.70;;;13.67;;
10045;SDS011;5063;50.878;4.742;2023-11-21T06:31:36;26.30;;;15.03;;
10045;SDS011;5063;50.878;4.742;2023-11-21T06:34:01;22.17;;;14.37;;
10045;SDS011;5063;50.878;4.742;2023-11-21T06:36:28;27.30;;;16.27;;
10045;SDS011;5063;50.878;4.742;2023-11-21T06:38:54;26.00;;;15.70;;
10045;SDS011;5063;50.878;4.742;2023-11-21T06:41:20;23.97;;;13.83;;
10045;SDS011;5063;50.878;4.742;2023-11-21T06:43:45;26.13;;;14.57;;
10045;SDS011;5063;50.878;4.742;2023-11-21T06:46:12;26.93;;;15.10;;
10045;SDS011;5063;50.878;4.742;2023-11-21T06:48:42;24.60;;;14.67;;
10045;SDS011;5063;50.878;4.742;2023-11-21T06:51:08;23.60;;;14.80;;
10045;SDS011;5063;50.878;4.742;2023-11-21T06:53:33;19.27;;;12.73;;
10045;SDS011;5063;50.878;4.742;2023-11-21T06:56:00;20.47;;;12.67;;
10045;SDS011;5063;50.878;4.742;2023-11-21T06:58:26;23.67;;;13.10;;
10045;SDS011;5063;50.878;4.742;2023-11-21T07:00:52;22.17;;;13.33;;
10045;SDS011;5063;50.878;4.742;2023-11-21T07:03:17;23.70;;;13.73;;
10045;SDS011;5063;50.878;4.742;2023-11-21T07:05:44;21.47;;;13.40;;
10045;SDS011;5063;50.878;4.742;2023-11-21T07:08:10;25.63;;;13.67;;
10045;SDS011;5063;50.878;4.742;2023-11-21T07:10:37;27.17;;;14.10;;
10045;SDS011;5063;50.878;4.742;2023-11-21T07:13:03;23.70;;;14.47;;
10045;SDS011;5063;50.878;4.742;2023-11-21T07:15:29;23.20;;;14.73;;
10045;SDS011;5063;50.878;4.742;2023-11-21T07:17:55;24.40;;;15.07;;
10045;SDS011;5063;50.878;4.742;2023-11-21T07:20:20;26.60;;;14.73;;
10045;SDS011;5063;50.878;4.742;2023-11-21T07:22:46;27.73;;;14.53;;
10045;SDS011;5063;50.878;4.742;2023-11-21T07:25:12;27.13;;;14.80;;
10045;SDS011;5063;50.878;4.742;2023-11-21T07:27:38;26.70;;;14.70;;
10045;SDS011;5063;50.878;4.742;2023-11-21T07:30:03;23.33;;;15.30;;
10045;SDS011;5063;50.878;4.742;2023-11-21T07:32:31;30.90;;;16.87;;
10045;SDS011;5063;50.878;4.742;2023-11-21T07:34:57;27.60;;;15.27;;
10045;SDS011;5063;50.878;4.742;2023-11-21T07:37:24;26.40;;;15.17;;
10045;SDS011;5063;50.878;4.742;2023-11-21T07:39:54;26.93;;;16.30;;
10045;SDS011;5063;50.878;4.742;2023-11-21T07:42:22;26.00;;;16.27;;
10045;SDS011;5063;50.878;4.742;2023-11-21T07:44:51;27.83;;;16.17;;
10045;SDS011;5063;50.878;4.742;2023-11-21T07:47:17;23.73;;;15.40;;
10045;SDS011;5063;50.878;4.742;2023-11-21T07:49:43;23.33;;;15.33;;
10045;SDS011;5063;50.878;4.742;2023-11-21T07:52:10;24.87;;;16.30;;
10045;SDS011;5063;50.878;4.742;2023-11-21T07:54:35;26.10;;;15.50;;
10045;SDS011;5063;50.878;4.742;2023-11-21T07:57:01;23.37;;;13.80;;
10045;SDS011;5063;50.878;4.742;2023-11-21T07:59:29;22.30;;;15.73;;
10045;SDS011;5063;50.878;4.742;2023-11-21T08:01:55;24.87;;;15.27;;
10045;SDS011;5063;50.878;4.742;2023-11-21T08:04:21;25.57;;;17.10;;
10045;SDS011;5063;50.878;4.742;2023-11-21T08:06:47;29.53;;;17.13;;
10045;SDS011;5063;50.878;4.742;2023-11-21T08:09:12;27.87;;;16.93;;
10045;SDS011;5063;50.878;4.742;2023-11-21T08:11:38;24.03;;;15.20;;
10045;SDS011;5063;50.878;4.742;2023-11-21T08:14:04;24.60;;;15.83;;
10045;SDS011;5063;50.878;4.742;2023-11-21T08:16:30;25.83;;;16.43;;
10045;SDS011;5063;50.878;4.742;2023-11-21T08:18:56;25.27;;;16.13;;
10045;SDS011;5063;50.878;4.742;2023-11-21T08:21:22;30.47;;;16.27;;
10045;SDS011;5063;50.878;4.742;2023-11-21T08:23:54;31.70;;;16.57;;
10045;SDS011;5063;50.878;4.742;2023-11-21T08:26:23;24.27;;;16.10;;
10045;SDS011;5063;50.878;4.742;2023-11-21T08:28:49;26.50;;;16.17;;
10045;SDS011;5063;50.878;4.742;2023-11-21T08:31:14;26.80;;;16.20;;
10045;SDS011;5063;50.878;4.742;2023-11-21T08:33:40;25.00;;;15.57;;
10045;SDS011;5063;50.878;4.742;2023-11-21T08:36:07;23.93;;;15.93;;
10045;SDS011;5063;50.878;4.742;2023-11-21T08:38:33;25.60;;;16.47;;
10045;SDS011;5063;50.878;4.742;2023-11-21T08:41:04;25.87;;;15.73;;
10045;SDS011;5063;50.878;4.742;2023-11-21T08:43:34;23.53;;;14.93;;
10045;SDS011;5063;50.878;4.742;2023-11-21T08:46:00;33.57;;;18.30;;
10045;SDS011;5063;50.878;4.742;2023-11-21T08:48:26;28.77;;;17.23;;
10045;SDS011;5063;50.878;4.742;2023-11-21T08:50:53;32.90;;;17.93;;
10045;SDS011;5063;50.878;4.742;2023-11-21T08:53:19;31.77;;;17.40;;
10045;SDS011;5063;50.878;4.742;2023-11-21T08:55:45;27.63;;;16.77;;
10045;SDS011;5063;50.878;4.742;2023-11-21T08:58:10;31.97;;;17.53;;
10045;SDS011;5063;50.878;4.742;2023-11-21T09:00:37;30.53;;;17.63;;
10045;SDS011;5063;50.878;4.742;2023-11-21T09:03:05;28.90;;;17.50;;
10045;SDS011;5063;50.878;4.742;2023-11-21T09:05:33;28.87;;;17.03;;
10045;SDS011;5063;50.878;4.742;2023-11-21T09:08:04;28.70;;;17.30;;
10045;SDS011;5063;50.878;4.742;2023-11-21T09:10:30;26.83;;;18.40;;
10045;SDS011;5063;50.878;4.742;2023-11-21T09:12:56;31.03;;;18.17;;
10045;SDS011;5063;50.878;4.742;2023-11-21T09:15:22;33.53;;;18.73;;
10045;SDS011;5063;50.878;4.742;2023-11-21T09:17:47;28.73;;;19.07;;
10045;SDS011;5063;50.878;4.742;2023-11-21T09:20:13;29.63;;;17.80;;
10045;SDS011;5063;50.878;4.742;2023-11-21T09:22:40;30.30;;;18.73;;
10045;SDS011;5063;50.878;4.742;2023-11-21T09:25:06;27.20;;;17.03;;
10045;SDS011;5063;50.878;4.742;2023-11-21T09:27:33;33.17;;;17.93;;
10045;SDS011;5063;50.878;4.742;2023-11-21T09:30:00;29.37;;;17.30;;
10045;SDS011;5063;50.878;4.742;2023-11-21T09:32:27;34.87;;;21.03;;
10045;SDS011;5063;50.878;4.742;2023-11-21T09:34:52;33.83;;;20.30;;
10045;SDS011;5063;50.878;4.742;2023-11-21T09:37:20;34.93;;;21.23;;
10045;SDS011;5063;50.878;4.742;2023-11-21T09:39:46;35.93;;;19.30;;
10045;SDS011;5063;50.878;4.742;2023-11-21T09:42:14;35.73;;;21.30;;
10045;SDS011;5063;50.878;4.742;2023-11-21T09:47:21;36.00;;;20.87;;
10045;SDS011;5063;50.878;4.742;2023-11-21T09:49:48;35.83;;;21.03;;
10045;SDS011;5063;50.878;4.742;2023-11-21T09:52:27;34.63;;;20.77;;
10045;SDS011;5063;50.878;4.742;2023-11-21T09:54:54;30.67;;;18.33;;
10045;SDS011;5063;50.878;4.742;2023-11-21T09:57:23;31.47;;;19.23;;
10045;SDS011;5063;50.878;4.742;2023-11-21T09:59:54;31.40;;;19.13;;
10045;SDS011;5063;50.878;4.742;2023-11-21T10:02:24;30.67;;;18.30;;
10045;SDS011;5063;50.878;4.742;2023-11-21T10:04:53;25.97;;;16.67;;
10045;SDS011;5063;50.878;4.742;2023-11-21T10:07:20;31.13;;;16.93;;
10045;SDS011;5063;50.878;4.742;2023-11-21T10:09:46;23.60;;;16.17;;
10045;SDS011;5063;50.878;4.742;2023-11-21T10:12:14;24.67;;;16.50;;
10045;SDS011;5063;50.878;4.742;2023-11-21T10:14:41;28.00;;;15.37;;
10045;SDS011;5063;50.878;4.742;2023-11-21T10:17:09;23.80;;;14.67;;
10045;SDS011;5063;50.878;4.742;2023-11-21T10:19:37;21.73;;;15.20;;
10045;SDS011;5063;50.878;4.742;2023-11-21T10:22:04;20.20;;;15.00;;
10045;SDS011;5063;50.878;4.742;2023-11-21T10:24:32;23.27;;;15.63;;
10045;SDS011;5063;50.878;4.742;2023-11-21T10:26:58;27.17;;;16.67;;
10045;SDS011;5063;50.878;4.742;2023-11-21T10:29:28;24.80;;;15.57;;
10045;SDS011;5063;50.878;4.742;2023-11-21T10:31:55;31.03;;;17.60;;
10045;SDS011;5063;50.878;4.742;2023-11-21T10:34:23;30.37;;;17.60;;
10045;SDS011;5063;50.878;4.742;2023-11-21T10:36:49;32.70;;;18.47;;
10045;SDS011;5063;50.878;4.742;2023-11-21T10:39:19;36.07;;;18.63;;
10045;SDS011;5063;50.878;4.742;2023-11-21T10:41:48;35.83;;;21.13;;
10045;SDS011;5063;50.878;4.742;2023-11-21T10:44:19;38.53;;;21.90;;
10045;SDS011;5063;50.878;4.742;2023-11-21T10:46:58;40.07;;;22.00;;
10045;SDS011;5063;50.878;4.742;2023-11-21T10:49:26;32.90;;;20.07;;
10045;SDS011;5063;50.878;4.742;2023-11-21T10:51:55;36.00;;;20.63;;
10045;SDS011;5063;50.878;4.742;2023-11-21T10:54:25;37.67;;;20.10;;
10045;SDS011;5063;50.878;4.742;2023-11-21T10:56:58;35.73;;;21.13;;
10045;SDS011;5063;50.878;4.742;2023-11-21T10:59:29;35.60;;;21.17;;
10045;SDS011;5063;50.878;4.742;2023-11-21T11:01:59;35.90;;;20.83;;
10045;SDS011;5063;50.878;4.742;2023-11-21T11:04:32;32.10;;;19.00;;
10045;SDS011;5063;50.878;4.742;2023-11-21T11:07:03;36.47;;;21.40;;
10045;SDS011;5063;50.878;4.742;2023-11-21T11:09:34;34.33;;;19.70;;
10045;SDS011;5063;50.878;4.742;2023-11-21T11:12:03;36.23;;;19.90;;
10045;SDS011;5063;50.878;4.742;2023-11-21T11:14:29;34.47;;;20.03;;
10045;SDS011;5063;50.878;4.742;2023-11-21T11:16:57;32.53;;;19.93;;
10045;SDS011;5063;50.878;4.742;2023-11-21T11:19:25;35.23;;;19.30;;
10045;SDS011;5063;50.878;4.742;2023-11-21T11:21:53;30.97;;;17.53;;
10045;SDS011;5063;50.878;4.742;2023-11-21T11:37:51;33.07;;;18.80;;
10045;SDS011;5063;50.878;4.742;2023-11-21T11:40:19;28.63;;;18.10;;
10045;SDS011;5063;50.878;4.742;2023-11-21T11:42:58;32.63;;;18.47;;
10045;SDS011;5063;50.878;4.742;2023-11-21T11:45:31;27.53;;;18.47;;
10045;SDS011;5063;50.878;4.742;2023-11-21T11:47:59;29.33;;;17.93;;
10045;SDS011;5063;50.878;4.742;2023-11-21T11:50:26;29.57;;;18.93;;
10045;SDS011;5063;50.878;4.742;2023-11-21T11:52:54;29.33;;;16.73;;
10045;SDS011;5063;50.878;4.742;2023-11-21T11:55:36;24.27;;;15.73;;
10045;SDS011;5063;50.878;4.742;2023-11-21T11:58:04;24.67;;;15.00;;
10045;SDS011;5063;50.878;4.742;2023-11-21T12:02:59;20.03;;;14.17;;
10045;SDS011;5063;50.878;4.742;2023-11-21T12:05:28;22.73;;;13.93;;
10045;SDS011;5063;50.878;4.742;2023-11-21T12:07:58;20.73;;;13.67;;
10045;SDS011;5063;50.878;4.742;2023-11-21T12:10:26;24.77;;;13.07;;
10045;SDS011;5063;50.878;4.742;2023-11-21T12:12:56;20.60;;;11.47;;
10045;SDS011;5063;50.878;4.742;2023-11-21T12:15:26;17.50;;;11.43;;
10045;SDS011;5063;50.878;4.742;2023-11-21T12:17:55;14.53;;;10.23;;
10045;SDS011;5063;50.878;4.742;2023-11-21T12:20:22;13.67;;;10.30;;
10045;SDS011;5063;50.878;4.742;2023-11-21T12:22:53;15.53;;;9.73;;
10045;SDS011;5063;50.878;4.742;2023-11-21T12:25:20;14.40;;;9.30;;
10045;SDS011;5063;50.878;4.742;2023-11-21T12:27:49;12.43;;;9.20;;
10045;SDS011;5063;50.878;4.742;2023-11-21T12:30:16;15.60;;;10.87;;
10045;SDS011;5063;50.878;4.742;2023-11-21T12:32:44;10.27;;;8.33;;
10045;SDS011;5063;50.878;4.742;2023-11-21T12:35:13;14.20;;;9.17;;
10045;SDS011;5063;50.878;4.742;2023-11-21T12:37:40;10.70;;;8.80;;
10045;SDS011;5063;50.878;4.742;2023-11-21T12:40:08;14.63;;;10.10;;
10045;SDS011;5063;50.878;4.742;2023-11-21T12:42:47;11.20;;;8.70;;
10045;SDS011;5063;50.878;4.742;2023-11-21T12:47:43;12.00;;;8.23;;
10045;SDS011;5063;50.878;4.742;2023-11-21T12:50:10;13.53;;;7.53;;
10045;SDS011;5063;50.878;4.742;2023-11-21T12:52:43;10.63;;;7.73;;
10045;SDS011;5063;50.878;4.742;2023-11-21T12:55:13;14.50;;;8.50;;
10045;SDS011;5063;50.878;4.742;2023-11-21T12:57:41;16.07;;;9.40;;
10045;SDS011;5063;50.878;4.742;2023-11-21T13:00:08;13.23;;;9.40;;
10045;SDS011;5063;50.878;4.742;2023-11-21T13:02:38;14.33;;;8.77;;
10045;SDS011;5063;50.878;4.742;2023-11-21T13:05:07;10.60;;;7.57;;
10045;SDS011;5063;50.878;4.742;2023-11-21T13:07:43;11.33;;;8.43;;
10045;SDS011;5063;50.878;4.742;2023-11-21T13:10:12;10.00;;;8.53;;
10045;SDS011;5063;50.878;4.742;2023-11-21T13:12:45;10.80;;;7.10;;
10045;SDS011;5063;50.878;4.742;2023-11-21T13:15:16;9.03;;;6.67;;
10045;SDS011;5063;50.878;4.742;2023-11-21T13:17:42;8.63;;;6.60;;
10045;SDS011;5063;50.878;4.742;2023-11-21T13:20:10;8.50;;;5.70;;
10045;SDS011;5063;50.878;4.742;2023-11-21T13:22:53;6.53;;;5.20;;
10045;SDS011;5063;50.878;4.742;2023-11-21T13:25:24;7.97;;;5.10;;
10045;SDS011;5063;50.878;4.742;2023-11-21T13:27:52;7.07;;;5.50;;
10045;SDS011;5063;50.878;4.742;2023-11-21T13:30:19;7.70;;;5.40;;
10045;SDS011;5063;50.878;4.742;2023-11-21T13:32:51;9.10;;;5.50;;
10045;SDS011;5063;50.878;4.742;2023-11-21T13:35:18;7.20;;;6.03;;
10045;SDS011;5063;50.878;4.742;2023-11-21T13:37:49;7.67;;;5.40;;
10045;SDS011;5063;50.878;4.742;2023-11-21T13:40:19;7.43;;;5.40;;
10045;SDS011;5063;50.878;4.742;2023-11-21T13:42:51;7.33;;;5.90;;
10045;SDS011;5063;50.878;4.742;2023-11-21T13:45:23;8.20;;;6.23;;
10045;SDS011;5063;50.878;4.742;2023-11-21T13:47:50;9.13;;;5.83;;
10045;SDS011;5063;50.878;4.742;2023-11-21T13:50:18;11.43;;;5.67;;
10045;SDS011;5063;50.878;4.742;2023-11-21T13:52:48;12.17;;;7.63;;
10045;SDS011;5063;50.878;4.742;2023-11-21T13:55:16;15.80;;;8.67;;
10045;SDS011;5063;50.878;4.742;2023-11-21T13:57:42;15.90;;;9.77;;
10045;SDS011;5063;50.878;4.742;2023-11-21T14:00:11;9.67;;;6.47;;
10045;SDS011;5063;50.878;4.742;2023-11-21T14:02:57;11.37;;;7.03;;
10045;SDS011;5063;50.878;4.742;2023-11-21T14:05:29;10.33;;;7.33;;
10045;SDS011;5063;50.878;4.742;2023-11-21T14:07:56;8.73;;;7.13;;
10045;SDS011;5063;50.878;4.742;2023-11-21T14:10:31;9.10;;;7.23;;
10045;SDS011;5063;50.878;4.742;2023-11-21T14:13:08;8.97;;;6.90;;
10045;SDS011;5063;50.878;4.742;2023-11-21T14:15:38;8.03;;;5.60;;
10045;SDS011;5063;50.878;4.742;2023-11-21T14:18:08;9.13;;;6.40;;
10045;SDS011;5063;50.878;4.742;2023-11-21T14:20:38;6.30;;;5.70;;
10045;SDS011;5063;50.878;4.742;2023-11-21T14:23:06;8.03;;;5.33;;
10045;SDS011;5063;50.878;4.742;2023-11-21T14:25:32;6.90;;;5.97;;
10045;SDS011;5063;50.878;4.742;2023-11-21T14:28:02;6.67;;;5.27;;
10045;SDS011;5063;50.878;4.742;2023-11-21T14:30:29;6.87;;;5.03;;
10045;SDS011;5063;50.878;4.742;2023-11-21T14:32:57;5.57;;;5.07;;
10045;SDS011;5063;50.878;4.742;2023-11-21T14:35:24;7.03;;;5.40;;
10045;SDS011;5063;50.878;4.742;2023-11-21T14:37:49;7.83;;;5.97;;
10045;SDS011;5063;50.878;4.742;2023-11-21T14:40:16;7.23;;;5.73;;
10045;SDS011;5063;50.878;4.742;2023-11-21T14:42:42;6.97;;;5.57;;
10045;SDS011;5063;50.878;4.742;2023-11-21T14:45:12;6.57;;;5.83;;
10045;SDS011;5063;50.878;4.742;2023-11-21T14:47:43;5.07;;;4.57;;
10045;SDS011;5063;50.878;4.742;2023-11-21T14:50:14;7.13;;;5.27;;
10045;SDS011;5063;50.878;4.742;2023-11-21T14:53:09;6.50;;;4.87;;
10045;SDS011;5063;50.878;4.742;2023-11-21T14:55:37;8.37;;;5.10;;
10045;SDS011;5063;50.878;4.742;2023-11-21T14:58:16;5.20;;;4.70;;
10045;SDS011;5063;50.878;4.742;2023-11-21T15:00:52;5.63;;;4.50;;